»·PEaware :: SKW2829 KSUN-KGJT

SKW2829 :: KSUN-KGJT

FLIGHT INFORMATION

Flight Status: Arrived
Operator:
SkyWest Airlines
More flights by this operator :: More flights under this callsign
Pilot: Nicholas W. (36245)
Aircraft: CANADAIR CL-600 CRJ-700
(CRJ7)
More flights by this aircraft type
Origin: KSUN Friedman Meml
United States
Destination: KGJT Grand Junction Regl
United States
More flights between these airports :: More routes between these airports
Route: AUREL3 REAPS MLD WINDO
File this flight plan on PilotEdge
Remarks:
Altitude:
(Current/Filed)
35,000ft
Speed:
(Current/Filed)
470kts
Departed: 23-May-22 09:06 PM
Arrived: 23-May-22 10:03 PM
Distance/Time
Traveled:
369nm/0:56
Distance/Time
To Go:
Arrived

Flight Plot

Page will automatically refresh every two minutes.

Flight plan parsing failed; only flown route is shown


Map Options




Map Legend


Flown Route
Filed Route
Departure Airport
Arrival Airport
Navaid (VOR, NDB)
Fix

Horizontal Profiles

Position Reports

Time Latitude Longitude Heading Altitude Ground
Speed
23-May-22 20:51 43.506336 -114.299771 278 5310ft 0kts
23-May-22 20:52 43.506336 -114.299771 278 5310ft 0kts
23-May-22 20:53 43.506336 -114.299771 278 5310ft 0kts
23-May-22 20:54 43.506336 -114.299771 278 5310ft 0kts
23-May-22 20:55 43.506336 -114.299771 278 5310ft 0kts
23-May-22 20:56 43.506336 -114.299771 278 5310ft 0kts
23-May-22 20:57 43.506336 -114.299771 278 5310ft 0kts
23-May-22 20:58 43.506336 -114.299771 278 5310ft 0kts
23-May-22 20:59 43.506336 -114.299771 278 5310ft 0kts
23-May-22 21:00 43.506336 -114.299771 278 5310ft 0kts
23-May-22 21:01 43.506337 -114.299776 279 5310ft 0kts
23-May-22 21:02 43.509905 -114.302665 325 5321ft 24kts
23-May-22 21:03 43.511648 -114.304257 345 5327ft 1kts
23-May-22 21:04 43.511338 -114.302899 144 5323ft 39kts
23-May-22 21:05 43.476192 -114.268392 143 6097ft 224kts
23-May-22 21:06 43.405052 -114.234792 173 8675ft 311kts
23-May-22 21:07 43.319281 -114.211310 159 11831ft 321kts
23-May-22 21:08 43.240105 -114.152685 150 14693ft 329kts
23-May-22 21:09 43.159837 -114.087301 139 17095ft 344kts
23-May-22 21:10 43.099414 -113.982750 126 19268ft 359kts
23-May-22 21:11 43.037137 -113.871947 128 21217ft 376kts
23-May-22 21:12 42.970897 -113.757677 127 23020ft 391kts
23-May-22 21:13 42.899649 -113.634399 127 23720ft 443kts
23-May-22 21:14 42.820444 -113.498066 127 25530ft 458kts
23-May-22 21:16 42.741460 -113.362521 127 27495ft 461kts
23-May-22 21:17 42.660240 -113.224739 128 28871ft 474kts
23-May-22 21:18 42.577243 -113.083346 127 30068ft 484kts
23-May-22 21:19 42.491962 -112.939674 129 31157ft 494kts
23-May-22 21:20 42.405261 -112.793322 129 32360ft 498kts
23-May-22 21:21 42.318228 -112.648026 129 33489ft 498kts
23-May-22 21:22 42.230609 -112.503069 130 34473ft 499kts
23-May-22 21:23 42.132882 -112.367926 141 34622ft 511kts
23-May-22 21:24 42.024761 -112.240169 140 34641ft 527kts
23-May-22 21:25 41.915223 -112.108218 141 34663ft 531kts
23-May-22 21:26 41.805487 -111.975848 141 34649ft 531kts
23-May-22 21:27 41.694930 -111.844935 141 34654ft 530kts
23-May-22 21:28 41.584895 -111.713721 142 34694ft 529kts
23-May-22 21:29 41.474962 -111.584270 142 34677ft 526kts
23-May-22 21:30 41.365570 -111.455341 142 34711ft 525kts
23-May-22 21:31 41.256008 -111.327017 143 34715ft 522kts
23-May-22 21:32 41.147144 -111.200226 144 34734ft 521kts
23-May-22 21:33 41.037688 -111.073662 138 34721ft 519kts
23-May-22 21:34 40.930735 -110.947578 139 34628ft 513kts
23-May-22 21:35 40.823044 -110.824864 138 34543ft 511kts
23-May-22 21:36 40.715526 -110.702340 139 34453ft 509kts
23-May-22 21:37 40.609149 -110.580263 139 34377ft 507kts
23-May-22 21:38 40.502463 -110.459388 139 34239ft 506kts
23-May-22 21:39 40.395434 -110.339289 140 34182ft 505kts
23-May-22 21:40 40.289202 -110.219131 139 34107ft 503kts
23-May-22 21:41 40.185492 -110.102677 141 32856ft 477kts
23-May-22 21:42 40.086718 -109.993596 141 31074ft 454kts
23-May-22 21:43 39.993287 -109.888430 141 29312ft 435kts
23-May-22 21:43 39.916861 -109.804195 142 27833ft 429kts
23-May-22 21:45 39.810923 -109.688204 140 25728ft 425kts
23-May-22 21:46 39.720869 -109.587952 141 23919ft 427kts
23-May-22 21:47 39.631005 -109.487039 136 22156ft 430kts
23-May-22 21:47 39.559112 -109.396910 137 20709ft 432kts
23-May-22 21:48 39.471768 -109.291052 138 18975ft 427kts
23-May-22 21:49 39.386740 -109.187509 137 17215ft 402kts
23-May-22 21:51 39.298222 -109.079757 136 15216ft 351kts
23-May-22 21:52 39.229205 -108.996278 136 13824ft 334kts
23-May-22 21:52 39.173027 -108.928501 136 12532ft 328kts
23-May-22 21:53 39.131517 -108.828913 109 10904ft 309kts
23-May-22 21:54 39.102234 -108.732427 109 9996ft 269kts
23-May-22 21:55 39.076519 -108.648950 109 9047ft 229kts
23-May-22 21:56 39.053654 -108.575459 112 8724ft 226kts
23-May-22 21:57 39.020853 -108.505438 120 7559ft 216kts
23-May-22 21:58 39.035212 -108.448680 38 6445ft 189kts
23-May-22 21:59 39.079432 -108.441677 307 6148ft 199kts
23-May-22 22:00 39.111005 -108.500908 303 5126ft 185kts
23-May-22 22:01 39.129707 -108.534772 296 4843ft 44kts
23-May-22 22:02 39.128453 -108.536165 130 4841ft 0kts

Navigation Log

Ident Type
Flight plan parsing failed, navigation log unavailable